createdAt,value
2022-12-22T00:01:50.200Z,6.20
2022-12-22T00:05:50.935Z,6.20
2022-12-22T00:09:51.566Z,6.20
2022-12-22T00:13:52.347Z,6.10
2022-12-22T00:17:53.236Z,6.10
2022-12-22T00:21:53.398Z,6.10
2022-12-22T00:25:53.750Z,6.10
2022-12-22T00:30:00.421Z,6.10
2022-12-22T00:34:01.442Z,6.00
2022-12-22T00:38:01.562Z,5.90
2022-12-22T00:42:02.489Z,5.80
2022-12-22T00:46:03.184Z,5.80
2022-12-22T00:50:06.027Z,5.70
2022-12-22T00:54:06.342Z,5.70
2022-12-22T00:58:06.956Z,5.70
2022-12-22T01:02:07.571Z,5.70
2022-12-22T01:06:08.625Z,5.80
2022-12-22T01:10:11.440Z,5.80
2022-12-22T01:14:11.989Z,5.90
2022-12-22T01:18:12.812Z,5.90
2022-12-22T01:22:14.659Z,6.00
2022-12-22T01:26:15.591Z,6.10
2022-12-22T01:30:15.956Z,6.20
2022-12-22T01:34:16.073Z,6.30
2022-12-22T01:38:16.672Z,6.40
2022-12-22T01:42:17.282Z,6.40
2022-12-22T01:46:35.725Z,6.50
2022-12-22T01:50:54.409Z,6.50
2022-12-22T01:54:55.043Z,6.50
2022-12-22T01:59:01.777Z,6.50
2022-12-22T02:03:02.729Z,6.50
2022-12-22T02:07:04.856Z,6.50
2022-12-22T02:11:31.930Z,6.40
2022-12-22T02:15:55.730Z,6.40
2022-12-22T02:20:28.842Z,6.50
2022-12-22T02:24:47.386Z,6.50
2022-12-22T02:28:50.908Z,6.60
2022-12-22T02:33:07.064Z,6.60
2022-12-22T02:37:22.511Z,6.60
2022-12-22T02:41:42.052Z,6.60
2022-12-22T02:46:13.641Z,6.70
2022-12-22T02:50:23.700Z,6.80
2022-12-22T02:54:25.651Z,6.80
2022-12-22T02:58:25.961Z,6.80
2022-12-22T03:02:26.946Z,6.80
2022-12-22T03:06:27.448Z,6.80
2022-12-22T03:10:28.654Z,6.70
2022-12-22T03:14:29.362Z,6.60
2022-12-22T03:18:31.072Z,6.50
2022-12-22T03:22:31.662Z,6.50
2022-12-22T03:26:13.640Z,6.40
2022-12-22T03:29:55.519Z,6.40
2022-12-22T03:33:37.480Z,6.30
2022-12-22T03:37:19.381Z,6.30
2022-12-22T03:41:01.950Z,6.30
2022-12-22T03:45:02.199Z,6.30
2022-12-22T03:49:05.560Z,6.30
2022-12-22T03:52:47.457Z,6.30
2022-12-22T03:56:29.636Z,6.30
2022-12-22T04:00:11.905Z,6.20
2022-12-22T04:03:54.059Z,6.20
2022-12-22T04:07:36.202Z,6.20
2022-12-22T04:11:37.428Z,6.10
2022-12-22T04:15:19.334Z,6.10
2022-12-22T04:19:01.362Z,6.00
2022-12-22T04:22:43.488Z,6.00
2022-12-22T04:26:26.008Z,6.00
2022-12-22T04:30:09.126Z,6.00
2022-12-22T04:33:51.467Z,6.00
2022-12-22T04:37:34.201Z,6.00
2022-12-22T04:41:16.211Z,6.10
2022-12-22T04:44:58.346Z,6.10
2022-12-22T04:48:40.429Z,6.20
2022-12-22T04:52:22.667Z,6.20
2022-12-22T04:56:07.260Z,6.30
2022-12-22T04:59:49.196Z,6.30
2022-12-22T05:03:31.253Z,6.40
2022-12-22T05:07:13.351Z,6.50
2022-12-22T05:10:55.326Z,6.60
2022-12-22T05:14:37.246Z,6.60
2022-12-22T05:18:19.244Z,6.70
2022-12-22T05:22:01.132Z,6.80
2022-12-22T05:25:43.068Z,6.90
2022-12-22T05:29:25.012Z,7.00
2022-12-22T05:33:07.157Z,7.10
2022-12-22T05:36:49.028Z,7.20
2022-12-22T05:40:30.987Z,7.20
2022-12-22T05:44:13.013Z,7.30
2022-12-22T05:47:55.013Z,7.40
2022-12-22T05:52:51.370Z,7.40
2022-12-22T05:56:03.218Z,7.50
2022-12-22T05:59:45.208Z,7.60
2022-12-22T06:03:28.332Z,7.60
2022-12-22T06:07:10.645Z,7.70
2022-12-22T06:10:55.446Z,7.80
2022-12-22T06:14:37.313Z,7.80
2022-12-22T06:18:19.210Z,7.90
2022-12-22T06:22:01.413Z,7.90
2022-12-22T06:25:43.403Z,8.00
2022-12-22T06:29:25.456Z,8.00
2022-12-22T06:33:07.388Z,8.10
2022-12-22T06:36:49.928Z,8.10
2022-12-22T06:40:31.927Z,8.20
2022-12-22T06:44:13.789Z,8.30
2022-12-22T06:47:55.793Z,8.30
2022-12-22T06:51:37.664Z,8.40
2022-12-22T06:55:19.557Z,8.40
2022-12-22T06:59:02.030Z,8.40
2022-12-22T07:02:44.204Z,8.50
2022-12-22T07:06:26.277Z,8.60
2022-12-22T07:10:09.148Z,8.60
2022-12-22T07:13:51.367Z,8.70
2022-12-22T07:17:33.460Z,8.80
2022-12-22T07:21:15.607Z,8.80
2022-12-22T07:24:57.669Z,8.90
2022-12-22T07:28:40.859Z,8.90
2022-12-22T07:32:22.840Z,8.90
2022-12-22T07:36:09.080Z,9.00
2022-12-22T07:39:51.061Z,9.00
2022-12-22T07:43:32.953Z,9.00
2022-12-22T07:47:14.860Z,9.00
2022-12-22T07:51:04.014Z,9.00
2022-12-22T07:54:46.024Z,8.90
2022-12-22T07:58:27.941Z,9.00
2022-12-22T08:02:12.593Z,9.00
2022-12-22T08:05:54.717Z,9.10
2022-12-22T08:09:36.759Z,9.20
2022-12-22T08:13:20.441Z,9.20
2022-12-22T08:17:02.825Z,9.20
2022-12-22T08:20:51.850Z,9.30
2022-12-22T08:24:33.938Z,9.40
2022-12-22T08:28:18.042Z,9.40
2022-12-22T08:32:01.303Z,9.40
2022-12-22T08:35:43.967Z,9.50
2022-12-22T08:39:28.943Z,9.50
2022-12-22T08:43:11.614Z,9.50
2022-12-22T08:46:55.021Z,9.60
2022-12-22T08:50:37.241Z,9.60
2022-12-22T08:54:19.856Z,9.70
2022-12-22T08:58:01.798Z,9.80
2022-12-22T09:05:53.028Z,9.90
2022-12-22T09:10:08.380Z,10.00
2022-12-22T09:14:30.723Z,10.00
2022-12-22T09:18:13.138Z,10.10
2022-12-22T09:22:05.751Z,10.10
2022-12-22T09:25:48.269Z,10.20
2022-12-22T09:29:30.737Z,10.20
2022-12-22T09:33:21.940Z,10.30
2022-12-22T09:37:06.480Z,10.30
2022-12-22T09:40:48.839Z,10.40
2022-12-22T09:48:39.615Z,10.50
2022-12-22T09:53:01.811Z,10.50
2022-12-22T10:00:50.677Z,10.60
2022-12-22T10:05:10.068Z,10.70
2022-12-22T10:08:54.355Z,10.70
2022-12-22T10:13:08.092Z,10.80
2022-12-22T10:16:50.221Z,10.80
2022-12-22T10:20:46.216Z,10.90
2022-12-22T10:24:33.793Z,10.90
2022-12-22T10:32:22.932Z,11.00
2022-12-22T10:36:33.152Z,11.00
2022-12-22T10:40:16.129Z,11.00
2022-12-22T10:44:28.566Z,11.00
2022-12-22T10:52:55.379Z,11.10
2022-12-22T10:57:13.837Z,11.10
2022-12-22T11:01:23.608Z,11.10
2022-12-22T11:05:07.562Z,11.20
2022-12-22T11:09:36.143Z,11.20
2022-12-22T11:48:35.286Z,11.40
2022-12-22T11:53:05.067Z,11.40
2022-12-22T12:44:24.635Z,11.60
2022-12-22T12:48:24.686Z,11.50
2022-12-22T13:18:57.569Z,11.60
2022-12-22T13:41:27.070Z,11.60
2022-12-22T13:55:23.174Z,11.60
2022-12-22T15:08:03.823Z,11.50
2022-12-22T15:11:31.651Z,11.50
2022-12-22T15:15:22.350Z,11.40
2022-12-22T15:19:22.971Z,11.30
2022-12-22T15:46:24.817Z,11.30
2022-12-22T15:55:24.789Z,11.20
2022-12-22T16:03:19.751Z,11.10
2022-12-22T16:07:02.369Z,11.10
2022-12-22T16:10:45.244Z,11.10
2022-12-22T16:14:27.491Z,11.10
2022-12-22T16:18:11.879Z,11.10
2022-12-22T16:21:54.283Z,11.00
2022-12-22T16:25:38.695Z,11.10
2022-12-22T16:29:20.627Z,11.10
2022-12-22T16:33:02.559Z,11.10
2022-12-22T16:36:44.472Z,11.10
2022-12-22T16:40:28.413Z,11.10
2022-12-22T16:44:10.441Z,11.10
2022-12-22T16:48:17.003Z,11.10
2022-12-22T16:52:00.087Z,11.20
2022-12-22T16:55:42.293Z,11.20
2022-12-22T16:59:25.787Z,11.20
2022-12-22T17:03:25.985Z,11.10
2022-12-22T17:07:09.724Z,11.00
2022-12-22T17:10:53.801Z,11.00
2022-12-22T17:14:39.221Z,10.90
2022-12-22T17:18:25.476Z,10.90
2022-12-22T17:22:22.216Z,10.90
2022-12-22T17:26:08.552Z,10.90
2022-12-22T17:29:51.563Z,10.90
2022-12-22T17:33:33.757Z,10.80
2022-12-22T17:37:19.339Z,10.70
2022-12-22T17:41:03.584Z,10.70
2022-12-22T17:44:46.078Z,10.70
2022-12-22T17:48:28.011Z,10.80
2022-12-22T17:52:23.083Z,10.80
2022-12-22T17:56:08.064Z,10.80
2022-12-22T17:59:50.856Z,10.80
2022-12-22T18:03:33.984Z,10.80
2022-12-22T18:07:19.323Z,10.80
2022-12-22T18:11:02.147Z,10.80
2022-12-22T18:14:45.499Z,10.80
2022-12-22T18:18:27.535Z,10.80
2022-12-22T18:26:00.144Z,10.80
2022-12-22T18:29:43.122Z,10.70
2022-12-22T18:33:25.146Z,10.80
2022-12-22T18:37:16.522Z,10.80
2022-12-22T18:40:59.043Z,10.80
2022-12-22T18:49:05.681Z,10.80
2022-12-22T18:52:50.814Z,10.80
2022-12-22T18:56:34.913Z,10.80
2022-12-22T19:00:23.413Z,10.80
2022-12-22T19:04:05.729Z,10.70
2022-12-22T19:07:51.283Z,10.70
2022-12-22T19:11:34.105Z,10.70
2022-12-22T19:15:27.727Z,10.60
2022-12-22T19:19:20.345Z,10.60
2022-12-22T19:23:12.707Z,10.50
2022-12-22T19:26:54.714Z,10.50
2022-12-22T19:30:38.573Z,10.50
2022-12-22T19:34:21.642Z,10.40
2022-12-22T19:38:20.406Z,10.40
2022-12-22T19:42:02.768Z,10.40
2022-12-22T19:45:47.012Z,10.40
2022-12-22T19:49:29.435Z,10.40
2022-12-22T19:53:12.105Z,10.30
2022-12-22T19:56:57.083Z,10.30
2022-12-22T20:04:31.658Z,10.20
2022-12-22T20:08:13.821Z,10.20
2022-12-22T20:11:56.252Z,10.20
2022-12-22T20:15:39.365Z,10.20
2022-12-22T20:19:21.244Z,10.10
2022-12-22T20:23:19.533Z,10.10
2022-12-22T20:27:31.334Z,10.10
2022-12-22T20:31:15.627Z,10.10
2022-12-22T20:34:57.640Z,10.10
2022-12-22T20:38:42.367Z,10.10
2022-12-22T20:42:30.234Z,10.10
2022-12-22T20:46:15.088Z,10.10
2022-12-22T20:49:57.193Z,10.10
2022-12-22T20:53:39.185Z,10.00
2022-12-22T20:57:22.704Z,10.00
2022-12-22T21:01:04.817Z,10.00
2022-12-22T21:04:46.855Z,10.00
2022-12-22T21:08:28.717Z,10.00
2022-12-22T21:12:11.039Z,10.00
2022-12-22T21:15:54.144Z,10.00
2022-12-22T21:19:36.043Z,10.00
2022-12-22T21:23:24.809Z,10.00
2022-12-22T21:27:06.736Z,10.00
2022-12-22T21:30:49.415Z,10.00
2022-12-22T21:34:31.325Z,10.00
2022-12-22T21:38:21.404Z,10.00
2022-12-22T21:42:05.252Z,10.00
2022-12-22T21:45:49.883Z,10.00
2022-12-22T21:49:33.470Z,10.00
2022-12-22T21:53:21.523Z,10.00
2022-12-22T21:57:04.673Z,10.00
2022-12-22T22:00:48.726Z,10.00
2022-12-22T22:04:30.720Z,9.90
2022-12-22T22:08:13.016Z,9.90
2022-12-22T22:12:13.460Z,9.90
2022-12-22T22:15:55.367Z,9.90
2022-12-22T22:19:37.365Z,9.90
